sensor_id;sensor_type;location;lat;lon;timestamp;P1;durP1;ratioP1;P2;durP2;ratioP2
65583;SDS011;70321;43.592;1.456;2023-07-20T00:02:20;5.95;;;2.65;;
65583;SDS011;70321;43.592;1.456;2023-07-20T00:04:46;6.85;;;2.50;;
65583;SDS011;70321;43.592;1.456;2023-07-20T00:07:13;5.22;;;2.40;;
65583;SDS011;70321;43.592;1.456;2023-07-20T00:09:40;6.55;;;2.50;;
65583;SDS011;70321;43.592;1.456;2023-07-20T00:12:06;6.95;;;2.60;;
65583;SDS011;70321;43.592;1.456;2023-07-20T00:14:33;6.10;;;2.35;;
65583;SDS011;70321;43.592;1.456;2023-07-20T00:17:00;6.45;;;2.28;;
65583;SDS011;70321;43.592;1.456;2023-07-20T00:19:28;5.63;;;2.22;;
65583;SDS011;70321;43.592;1.456;2023-07-20T00:21:55;6.15;;;2.15;;
65583;SDS011;70321;43.592;1.456;2023-07-20T00:24:22;5.70;;;2.45;;
65583;SDS011;70321;43.592;1.456;2023-07-20T00:26:49;4.75;;;2.38;;
65583;SDS011;70321;43.592;1.456;2023-07-20T00:29:16;5.13;;;2.33;;
65583;SDS011;70321;43.592;1.456;2023-07-20T00:31:43;4.25;;;2.28;;
65583;SDS011;70321;43.592;1.456;2023-07-20T00:34:10;7.50;;;2.80;;
65583;SDS011;70321;43.592;1.456;2023-07-20T00:36:36;8.20;;;2.55;;
65583;SDS011;70321;43.592;1.456;2023-07-20T00:39:03;6.75;;;2.72;;
65583;SDS011;70321;43.592;1.456;2023-07-20T00:41:30;6.03;;;2.40;;
65583;SDS011;70321;43.592;1.456;2023-07-20T00:43:58;4.38;;;2.22;;
65583;SDS011;70321;43.592;1.456;2023-07-20T00:46:24;4.97;;;2.75;;
65583;SDS011;70321;43.592;1.456;2023-07-20T00:48:53;5.53;;;2.28;;
65583;SDS011;70321;43.592;1.456;2023-07-20T00:51:20;6.55;;;2.50;;
65583;SDS011;70321;43.592;1.456;2023-07-20T00:53:49;4.90;;;2.45;;
65583;SDS011;70321;43.592;1.456;2023-07-20T00:56:16;7.18;;;2.70;;
65583;SDS011;70321;43.592;1.456;2023-07-20T00:58:43;8.43;;;2.55;;
65583;SDS011;70321;43.592;1.456;2023-07-20T01:01:10;5.85;;;2.35;;
65583;SDS011;70321;43.592;1.456;2023-07-20T01:03:37;6.47;;;2.50;;
65583;SDS011;70321;43.592;1.456;2023-07-20T01:09:03;7.43;;;2.53;;
65583;SDS011;70321;43.592;1.456;2023-07-20T01:11:54;6.63;;;2.50;;
65583;SDS011;70321;43.592;1.456;2023-07-20T01:14:39;4.57;;;1.98;;
65583;SDS011;70321;43.592;1.456;2023-07-20T01:17:06;6.38;;;2.72;;
65583;SDS011;70321;43.592;1.456;2023-07-20T01:19:33;4.88;;;2.38;;
65583;SDS011;70321;43.592;1.456;2023-07-20T01:22:04;6.43;;;2.33;;
65583;SDS011;70321;43.592;1.456;2023-07-20T01:30:03;5.45;;;2.35;;
65583;SDS011;70321;43.592;1.456;2023-07-20T01:32:40;8.52;;;2.38;;
65583;SDS011;70321;43.592;1.456;2023-07-20T01:35:10;6.93;;;2.30;;
65583;SDS011;70321;43.592;1.456;2023-07-20T01:37:44;4.97;;;2.17;;
65583;SDS011;70321;43.592;1.456;2023-07-20T01:40:13;4.80;;;2.03;;
65583;SDS011;70321;43.592;1.456;2023-07-20T01:42:45;5.30;;;2.38;;
65583;SDS011;70321;43.592;1.456;2023-07-20T01:45:13;5.72;;;2.50;;
65583;SDS011;70321;43.592;1.456;2023-07-20T01:47:40;4.97;;;2.55;;
65583;SDS011;70321;43.592;1.456;2023-07-20T01:50:07;4.38;;;2.20;;
65583;SDS011;70321;43.592;1.456;2023-07-20T01:52:34;3.53;;;2.03;;
65583;SDS011;70321;43.592;1.456;2023-07-20T01:55:01;3.85;;;1.98;;
65583;SDS011;70321;43.592;1.456;2023-07-20T01:57:28;5.30;;;2.20;;
65583;SDS011;70321;43.592;1.456;2023-07-20T01:59:54;4.28;;;2.10;;
65583;SDS011;70321;43.592;1.456;2023-07-20T02:02:23;3.47;;;1.90;;
65583;SDS011;70321;43.592;1.456;2023-07-20T02:04:52;4.85;;;2.33;;
65583;SDS011;70321;43.592;1.456;2023-07-20T02:07:19;3.63;;;1.95;;
65583;SDS011;70321;43.592;1.456;2023-07-20T02:09:46;3.03;;;1.98;;
65583;SDS011;70321;43.592;1.456;2023-07-20T02:12:12;3.25;;;1.85;;
65583;SDS011;70321;43.592;1.456;2023-07-20T02:14:39;3.33;;;1.90;;
65583;SDS011;70321;43.592;1.456;2023-07-20T02:17:05;3.88;;;2.30;;
65583;SDS011;70321;43.592;1.456;2023-07-20T02:19:32;3.78;;;2.20;;
65583;SDS011;70321;43.592;1.456;2023-07-20T02:21:59;4.32;;;2.13;;
65583;SDS011;70321;43.592;1.456;2023-07-20T02:24:25;3.83;;;2.13;;
65583;SDS011;70321;43.592;1.456;2023-07-20T02:26:52;4.70;;;2.00;;
65583;SDS011;70321;43.592;1.456;2023-07-20T02:29:19;3.72;;;2.05;;
65583;SDS011;70321;43.592;1.456;2023-07-20T02:31:45;4.20;;;2.13;;
65583;SDS011;70321;43.592;1.456;2023-07-20T02:34:12;4.07;;;2.00;;
65583;SDS011;70321;43.592;1.456;2023-07-20T02:36:39;6.38;;;2.50;;
65583;SDS011;70321;43.592;1.456;2023-07-20T02:39:09;4.18;;;1.95;;
65583;SDS011;70321;43.592;1.456;2023-07-20T02:41:36;5.22;;;2.30;;
65583;SDS011;70321;43.592;1.456;2023-07-20T02:44:03;3.92;;;2.28;;
65583;SDS011;70321;43.592;1.456;2023-07-20T02:46:30;4.78;;;2.40;;
65583;SDS011;70321;43.592;1.456;2023-07-20T02:48:57;7.03;;;2.30;;
65583;SDS011;70321;43.592;1.456;2023-07-20T02:51:23;5.13;;;2.22;;
65583;SDS011;70321;43.592;1.456;2023-07-20T02:53:50;4.25;;;2.00;;
65583;SDS011;70321;43.592;1.456;2023-07-20T02:56:17;4.47;;;2.05;;
65583;SDS011;70321;43.592;1.456;2023-07-20T02:58:44;3.45;;;2.03;;
65583;SDS011;70321;43.592;1.456;2023-07-20T03:01:12;6.60;;;2.00;;
65583;SDS011;70321;43.592;1.456;2023-07-20T03:03:39;4.45;;;2.10;;
65583;SDS011;70321;43.592;1.456;2023-07-20T03:06:06;3.03;;;1.90;;
65583;SDS011;70321;43.592;1.456;2023-07-20T03:08:36;4.63;;;2.10;;
65583;SDS011;70321;43.592;1.456;2023-07-20T03:11:02;5.05;;;2.03;;
65583;SDS011;70321;43.592;1.456;2023-07-20T03:13:29;3.78;;;2.00;;
65583;SDS011;70321;43.592;1.456;2023-07-20T03:15:56;3.63;;;2.05;;
65583;SDS011;70321;43.592;1.456;2023-07-20T03:18:22;3.40;;;1.83;;
65583;SDS011;70321;43.592;1.456;2023-07-20T03:20:49;6.68;;;2.03;;
65583;SDS011;70321;43.592;1.456;2023-07-20T03:23:16;6.35;;;2.53;;
65583;SDS011;70321;43.592;1.456;2023-07-20T03:25:43;4.80;;;2.10;;
65583;SDS011;70321;43.592;1.456;2023-07-20T03:28:09;5.50;;;2.10;;
65583;SDS011;70321;43.592;1.456;2023-07-20T03:30:36;3.72;;;1.95;;
65583;SDS011;70321;43.592;1.456;2023-07-20T03:33:03;4.63;;;2.20;;
65583;SDS011;70321;43.592;1.456;2023-07-20T03:35:30;3.38;;;1.98;;
65583;SDS011;70321;43.592;1.456;2023-07-20T03:37:57;6.45;;;1.98;;
65583;SDS011;70321;43.592;1.456;2023-07-20T03:40:24;4.50;;;2.17;;
65583;SDS011;70321;43.592;1.456;2023-07-20T03:42:51;2.92;;;1.83;;
65583;SDS011;70321;43.592;1.456;2023-07-20T03:45:18;3.30;;;1.98;;
65583;SDS011;70321;43.592;1.456;2023-07-20T03:47:44;3.90;;;1.70;;
65583;SDS011;70321;43.592;1.456;2023-07-20T03:50:11;3.70;;;1.95;;
65583;SDS011;70321;43.592;1.456;2023-07-20T03:52:38;3.28;;;1.73;;
65583;SDS011;70321;43.592;1.456;2023-07-20T03:55:05;4.88;;;2.05;;
65583;SDS011;70321;43.592;1.456;2023-07-20T03:57:32;5.03;;;1.90;;
65583;SDS011;70321;43.592;1.456;2023-07-20T03:59:59;4.30;;;2.10;;
65583;SDS011;70321;43.592;1.456;2023-07-20T04:02:26;4.00;;;2.10;;
65583;SDS011;70321;43.592;1.456;2023-07-20T04:04:53;5.07;;;2.05;;
65583;SDS011;70321;43.592;1.456;2023-07-20T04:07:19;8.35;;;2.10;;
65583;SDS011;70321;43.592;1.456;2023-07-20T04:09:46;4.47;;;1.85;;
65583;SDS011;70321;43.592;1.456;2023-07-20T04:12:13;3.25;;;1.88;;
65583;SDS011;70321;43.592;1.456;2023-07-20T04:14:39;3.88;;;1.90;;
65583;SDS011;70321;43.592;1.456;2023-07-20T04:17:06;4.95;;;2.08;;
65583;SDS011;70321;43.592;1.456;2023-07-20T04:19:33;2.90;;;1.90;;
65583;SDS011;70321;43.592;1.456;2023-07-20T04:21:59;4.25;;;1.95;;
65583;SDS011;70321;43.592;1.456;2023-07-20T04:24:26;3.28;;;1.60;;
65583;SDS011;70321;43.592;1.456;2023-07-20T04:26:52;4.35;;;2.05;;
65583;SDS011;70321;43.592;1.456;2023-07-20T04:29:19;2.90;;;1.80;;
65583;SDS011;70321;43.592;1.456;2023-07-20T04:31:46;3.53;;;1.60;;
65583;SDS011;70321;43.592;1.456;2023-07-20T04:34:13;5.22;;;1.80;;
65583;SDS011;70321;43.592;1.456;2023-07-20T04:36:39;3.35;;;1.67;;
65583;SDS011;70321;43.592;1.456;2023-07-20T04:39:06;3.63;;;1.65;;
65583;SDS011;70321;43.592;1.456;2023-07-20T04:41:54;3.53;;;1.45;;
65583;SDS011;70321;43.592;1.456;2023-07-20T04:44:21;3.33;;;1.50;;
65583;SDS011;70321;43.592;1.456;2023-07-20T04:46:47;2.85;;;1.30;;
65583;SDS011;70321;43.592;1.456;2023-07-20T04:49:14;3.42;;;1.60;;
65583;SDS011;70321;43.592;1.456;2023-07-20T04:51:41;2.22;;;1.38;;
65583;SDS011;70321;43.592;1.456;2023-07-20T04:54:08;2.85;;;1.70;;
65583;SDS011;70321;43.592;1.456;2023-07-20T04:56:34;2.80;;;1.20;;
65583;SDS011;70321;43.592;1.456;2023-07-20T04:59:01;1.92;;;1.25;;
65583;SDS011;70321;43.592;1.456;2023-07-20T05:01:28;4.93;;;1.45;;
65583;SDS011;70321;43.592;1.456;2023-07-20T05:03:54;2.40;;;1.35;;
65583;SDS011;70321;43.592;1.456;2023-07-20T05:06:21;3.85;;;1.67;;
65583;SDS011;70321;43.592;1.456;2023-07-20T05:08:48;3.05;;;1.70;;
65583;SDS011;70321;43.592;1.456;2023-07-20T05:11:15;3.47;;;1.70;;
65583;SDS011;70321;43.592;1.456;2023-07-20T05:13:42;2.92;;;1.42;;
65583;SDS011;70321;43.592;1.456;2023-07-20T05:16:08;2.35;;;1.40;;
65583;SDS011;70321;43.592;1.456;2023-07-20T05:18:35;2.65;;;1.42;;
65583;SDS011;70321;43.592;1.456;2023-07-20T05:21:02;2.60;;;1.40;;
65583;SDS011;70321;43.592;1.456;2023-07-20T05:23:28;5.05;;;1.50;;
65583;SDS011;70321;43.592;1.456;2023-07-20T05:25:58;3.13;;;1.35;;
65583;SDS011;70321;43.592;1.456;2023-07-20T05:28:25;2.75;;;1.60;;
65583;SDS011;70321;43.592;1.456;2023-07-20T05:30:53;3.25;;;1.63;;
65583;SDS011;70321;43.592;1.456;2023-07-20T05:33:20;2.25;;;1.35;;
65583;SDS011;70321;43.592;1.456;2023-07-20T05:35:47;3.60;;;1.45;;
65583;SDS011;70321;43.592;1.456;2023-07-20T05:38:14;4.65;;;1.50;;
65583;SDS011;70321;43.592;1.456;2023-07-20T05:40:41;2.88;;;1.20;;
65583;SDS011;70321;43.592;1.456;2023-07-20T05:43:09;2.45;;;1.23;;
65583;SDS011;70321;43.592;1.456;2023-07-20T05:45:35;2.92;;;1.40;;
65583;SDS011;70321;43.592;1.456;2023-07-20T05:48:02;2.38;;;1.42;;
65583;SDS011;70321;43.592;1.456;2023-07-20T05:50:29;4.68;;;1.58;;
65583;SDS011;70321;43.592;1.456;2023-07-20T05:52:56;4.03;;;1.33;;
65583;SDS011;70321;43.592;1.456;2023-07-20T05:55:22;2.65;;;1.42;;
65583;SDS011;70321;43.592;1.456;2023-07-20T05:57:49;5.10;;;1.50;;
65583;SDS011;70321;43.592;1.456;2023-07-20T06:00:16;3.00;;;1.23;;
65583;SDS011;70321;43.592;1.456;2023-07-20T06:02:45;1.88;;;1.10;;
65583;SDS011;70321;43.592;1.456;2023-07-20T06:05:14;2.45;;;1.10;;
65583;SDS011;70321;43.592;1.456;2023-07-20T06:07:41;2.70;;;1.30;;
65583;SDS011;70321;43.592;1.456;2023-07-20T06:10:08;3.35;;;1.30;;
65583;SDS011;70321;43.592;1.456;2023-07-20T06:12:35;3.33;;;1.38;;
65583;SDS011;70321;43.592;1.456;2023-07-20T06:15:02;3.78;;;1.40;;
65583;SDS011;70321;43.592;1.456;2023-07-20T06:17:30;3.67;;;1.38;;
65583;SDS011;70321;43.592;1.456;2023-07-20T06:19:57;2.28;;;1.20;;
65583;SDS011;70321;43.592;1.456;2023-07-20T06:22:23;2.67;;;1.40;;
65583;SDS011;70321;43.592;1.456;2023-07-20T06:24:50;1.77;;;1.08;;
65583;SDS011;70321;43.592;1.456;2023-07-20T06:27:16;5.05;;;1.70;;
65583;SDS011;70321;43.592;1.456;2023-07-20T06:29:43;3.67;;;1.40;;
65583;SDS011;70321;43.592;1.456;2023-07-20T06:32:10;2.22;;;1.30;;
65583;SDS011;70321;43.592;1.456;2023-07-20T06:34:36;2.72;;;1.42;;
65583;SDS011;70321;43.592;1.456;2023-07-20T06:37:04;2.05;;;1.20;;
65583;SDS011;70321;43.592;1.456;2023-07-20T06:39:31;2.70;;;1.10;;
65583;SDS011;70321;43.592;1.456;2023-07-20T06:42:00;3.63;;;1.33;;
65583;SDS011;70321;43.592;1.456;2023-07-20T06:44:27;3.83;;;1.25;;
65583;SDS011;70321;43.592;1.456;2023-07-20T06:46:54;3.67;;;1.40;;
65583;SDS011;70321;43.592;1.456;2023-07-20T06:49:27;3.33;;;1.20;;
65583;SDS011;70321;43.592;1.456;2023-07-20T06:51:54;5.45;;;1.60;;
65583;SDS011;70321;43.592;1.456;2023-07-20T06:54:21;3.33;;;1.40;;
65583;SDS011;70321;43.592;1.456;2023-07-20T06:56:49;3.80;;;1.60;;
65583;SDS011;70321;43.592;1.456;2023-07-20T06:59:36;3.30;;;1.30;;
65583;SDS011;70321;43.592;1.456;2023-07-20T07:02:07;2.45;;;1.30;;
65583;SDS011;70321;43.592;1.456;2023-07-20T07:04:40;3.53;;;1.60;;
65583;SDS011;70321;43.592;1.456;2023-07-20T07:07:07;3.25;;;1.30;;
65583;SDS011;70321;43.592;1.456;2023-07-20T07:09:34;2.20;;;1.20;;
65583;SDS011;70321;43.592;1.456;2023-07-20T07:12:01;3.58;;;1.63;;
65583;SDS011;70321;43.592;1.456;2023-07-20T07:14:28;2.90;;;1.30;;
65583;SDS011;70321;43.592;1.456;2023-07-20T07:16:55;2.47;;;1.48;;
65583;SDS011;70321;43.592;1.456;2023-07-20T07:19:23;1.95;;;1.30;;
65583;SDS011;70321;43.592;1.456;2023-07-20T07:21:50;3.70;;;1.40;;
65583;SDS011;70321;43.592;1.456;2023-07-20T07:24:17;3.50;;;1.30;;
65583;SDS011;70321;43.592;1.456;2023-07-20T07:26:45;2.15;;;1.17;;
65583;SDS011;70321;43.592;1.456;2023-07-20T07:29:12;4.70;;;1.23;;
65583;SDS011;70321;43.592;1.456;2023-07-20T07:31:39;5.38;;;1.42;;
65583;SDS011;70321;43.592;1.456;2023-07-20T07:34:05;2.80;;;1.20;;
65583;SDS011;70321;43.592;1.456;2023-07-20T07:36:32;2.28;;;1.27;;
65583;SDS011;70321;43.592;1.456;2023-07-20T07:38:59;2.38;;;1.30;;
65583;SDS011;70321;43.592;1.456;2023-07-20T07:41:29;3.67;;;1.27;;
65583;SDS011;70321;43.592;1.456;2023-07-20T07:43:56;3.40;;;1.50;;
65583;SDS011;70321;43.592;1.456;2023-07-20T07:46:22;2.72;;;1.33;;
65583;SDS011;70321;43.592;1.456;2023-07-20T07:48:49;2.28;;;1.30;;
65583;SDS011;70321;43.592;1.456;2023-07-20T07:51:16;4.63;;;1.15;;
65583;SDS011;70321;43.592;1.456;2023-07-20T07:53:43;2.33;;;1.30;;
65583;SDS011;70321;43.592;1.456;2023-07-20T07:56:10;2.28;;;1.30;;
65583;SDS011;70321;43.592;1.456;2023-07-20T07:58:36;2.22;;;1.20;;
65583;SDS011;70321;43.592;1.456;2023-07-20T08:01:04;3.75;;;1.10;;
65583;SDS011;70321;43.592;1.456;2023-07-20T08:03:30;2.67;;;1.25;;
65583;SDS011;70321;43.592;1.456;2023-07-20T08:05:57;4.35;;;1.67;;
65583;SDS011;70321;43.592;1.456;2023-07-20T08:08:26;2.63;;;1.20;;
65583;SDS011;70321;43.592;1.456;2023-07-20T08:10:53;7.32;;;1.33;;
65583;SDS011;70321;43.592;1.456;2023-07-20T08:13:20;2.28;;;1.30;;
65583;SDS011;70321;43.592;1.456;2023-07-20T08:15:49;4.00;;;1.33;;
65583;SDS011;70321;43.592;1.456;2023-07-20T08:18:17;2.42;;;1.40;;
65583;SDS011;70321;43.592;1.456;2023-07-20T08:20:44;1.92;;;1.08;;
65583;SDS011;70321;43.592;1.456;2023-07-20T08:23:12;2.03;;;1.23;;
65583;SDS011;70321;43.592;1.456;2023-07-20T08:25:39;4.28;;;1.20;;
65583;SDS011;70321;43.592;1.456;2023-07-20T08:28:15;3.17;;;1.30;;
65583;SDS011;70321;43.592;1.456;2023-07-20T08:30:43;2.95;;;1.27;;
65583;SDS011;70321;43.592;1.456;2023-07-20T08:33:14;2.55;;;1.00;;
65583;SDS011;70321;43.592;1.456;2023-07-20T08:35:41;3.40;;;1.15;;
65583;SDS011;70321;43.592;1.456;2023-07-20T08:38:09;3.92;;;1.52;;
65583;SDS011;70321;43.592;1.456;2023-07-20T08:40:39;1.73;;;1.00;;
65583;SDS011;70321;43.592;1.456;2023-07-20T08:43:13;1.88;;;1.20;;
65583;SDS011;70321;43.592;1.456;2023-07-20T08:45:43;1.88;;;1.10;;
65583;SDS011;70321;43.592;1.456;2023-07-20T08:48:11;1.98;;;1.00;;
65583;SDS011;70321;43.592;1.456;2023-07-20T08:50:38;4.47;;;1.23;;
65583;SDS011;70321;43.592;1.456;2023-07-20T08:53:05;3.05;;;1.10;;
65583;SDS011;70321;43.592;1.456;2023-07-20T08:55:33;2.15;;;1.10;;
65583;SDS011;70321;43.592;1.456;2023-07-20T08:58:01;2.20;;;1.10;;
65583;SDS011;70321;43.592;1.456;2023-07-20T09:00:29;2.17;;;1.00;;
65583;SDS011;70321;43.592;1.456;2023-07-20T09:02:56;2.83;;;1.20;;
65583;SDS011;70321;43.592;1.456;2023-07-20T09:05:24;1.52;;;1.00;;
65583;SDS011;70321;43.592;1.456;2023-07-20T09:07:52;3.80;;;1.10;;
65583;SDS011;70321;43.592;1.456;2023-07-20T09:10:23;4.43;;;0.95;;
65583;SDS011;70321;43.592;1.456;2023-07-20T09:12:50;2.55;;;0.98;;
65583;SDS011;70321;43.592;1.456;2023-07-20T09:15:18;2.90;;;1.00;;
65583;SDS011;70321;43.592;1.456;2023-07-20T09:17:47;2.10;;;1.10;;
65583;SDS011;70321;43.592;1.456;2023-07-20T09:20:16;1.92;;;1.00;;
65583;SDS011;70321;43.592;1.456;2023-07-20T09:22:48;1.88;;;0.85;;
65583;SDS011;70321;43.592;1.456;2023-07-20T09:25:17;2.17;;;1.10;;
65583;SDS011;70321;43.592;1.456;2023-07-20T09:27:48;1.65;;;1.10;;
65583;SDS011;70321;43.592;1.456;2023-07-20T09:30:17;1.08;;;0.80;;
65583;SDS011;70321;43.592;1.456;2023-07-20T09:32:45;1.80;;;1.00;;
65583;SDS011;70321;43.592;1.456;2023-07-20T09:35:16;4.00;;;1.10;;
65583;SDS011;70321;43.592;1.456;2023-07-20T09:37:59;3.03;;;1.00;;
65583;SDS011;70321;43.592;1.456;2023-07-20T09:40:30;2.78;;;0.90;;
65583;SDS011;70321;43.592;1.456;2023-07-20T09:42:59;2.20;;;1.30;;
65583;SDS011;70321;43.592;1.456;2023-07-20T09:45:30;3.72;;;1.00;;
65583;SDS011;70321;43.592;1.456;2023-07-20T09:48:06;2.88;;;1.10;;
65583;SDS011;70321;43.592;1.456;2023-07-20T09:50:43;2.22;;;1.10;;
65583;SDS011;70321;43.592;1.456;2023-07-20T09:53:15;2.88;;;0.98;;
65583;SDS011;70321;43.592;1.456;2023-07-20T09:55:44;2.22;;;1.23;;
65583;SDS011;70321;43.592;1.456;2023-07-20T09:58:11;2.00;;;1.10;;
65583;SDS011;70321;43.592;1.456;2023-07-20T10:00:38;4.38;;;1.20;;
65583;SDS011;70321;43.592;1.456;2023-07-20T10:03:10;2.63;;;1.15;;
65583;SDS011;70321;43.592;1.456;2023-07-20T10:05:51;2.00;;;1.20;;
65583;SDS011;70321;43.592;1.456;2023-07-20T10:08:21;1.77;;;1.00;;
65583;SDS011;70321;43.592;1.456;2023-07-20T10:10:54;2.90;;;1.20;;
65583;SDS011;70321;43.592;1.456;2023-07-20T10:13:21;3.22;;;1.33;;
65583;SDS011;70321;43.592;1.456;2023-07-20T10:15:54;2.80;;;1.10;;
65583;SDS011;70321;43.592;1.456;2023-07-20T10:18:41;1.20;;;0.80;;
65583;SDS011;70321;43.592;1.456;2023-07-20T10:21:17;1.40;;;0.90;;
65583;SDS011;70321;43.592;1.456;2023-07-20T10:23:49;3.00;;;1.10;;
65583;SDS011;70321;43.592;1.456;2023-07-20T10:26:16;3.47;;;1.25;;
65583;SDS011;70321;43.592;1.456;2023-07-20T10:28:43;4.22;;;1.13;;
65583;SDS011;70321;43.592;1.456;2023-07-20T10:31:10;1.48;;;1.00;;
65583;SDS011;70321;43.592;1.456;2023-07-20T10:33:39;2.17;;;1.20;;
65583;SDS011;70321;43.592;1.456;2023-07-20T10:36:06;2.60;;;1.00;;
65583;SDS011;70321;43.592;1.456;2023-07-20T10:38:42;3.25;;;1.15;;
65583;SDS011;70321;43.592;1.456;2023-07-20T10:41:20;2.10;;;1.10;;
65583;SDS011;70321;43.592;1.456;2023-07-20T10:43:48;1.95;;;1.20;;
65583;SDS011;70321;43.592;1.456;2023-07-20T10:46:16;2.85;;;0.90;;
65583;SDS011;70321;43.592;1.456;2023-07-20T10:49:01;3.13;;;1.40;;
65583;SDS011;70321;43.592;1.456;2023-07-20T10:51:38;3.45;;;1.17;;
65583;SDS011;70321;43.592;1.456;2023-07-20T10:54:09;2.17;;;1.10;;
65583;SDS011;70321;43.592;1.456;2023-07-20T10:56:41;1.52;;;1.00;;
65583;SDS011;70321;43.592;1.456;2023-07-20T10:59:18;2.55;;;1.10;;
65583;SDS011;70321;43.592;1.456;2023-07-20T11:01:54;1.60;;;0.95;;
65583;SDS011;70321;43.592;1.456;2023-07-20T11:07:35;2.25;;;1.08;;
65583;SDS011;70321;43.592;1.456;2023-07-20T11:10:13;2.95;;;1.25;;
65583;SDS011;70321;43.592;1.456;2023-07-20T11:18:22;1.73;;;1.00;;
65583;SDS011;70321;43.592;1.456;2023-07-20T11:20:52;2.38;;;1.25;;
65583;SDS011;70321;43.592;1.456;2023-07-20T11:23:20;2.00;;;1.25;;
65583;SDS011;70321;43.592;1.456;2023-07-20T11:25:47;4.13;;;1.30;;
65583;SDS011;70321;43.592;1.456;2023-07-20T11:28:14;4.82;;;1.10;;
65583;SDS011;70321;43.592;1.456;2023-07-20T11:30:43;2.20;;;1.10;;
65583;SDS011;70321;43.592;1.456;2023-07-20T11:33:10;2.67;;;1.08;;
65583;SDS011;70321;43.592;1.456;2023-07-20T11:35:43;2.72;;;1.30;;
65583;SDS011;70321;43.592;1.456;2023-07-20T11:38:12;2.35;;;1.48;;
65583;SDS011;70321;43.592;1.456;2023-07-20T11:40:43;4.38;;;1.20;;
65583;SDS011;70321;43.592;1.456;2023-07-20T11:43:13;1.73;;;1.13;;
65583;SDS011;70321;43.592;1.456;2023-07-20T11:45:43;4.28;;;1.30;;
65583;SDS011;70321;43.592;1.456;2023-07-20T11:48:14;2.88;;;1.20;;
65583;SDS011;70321;43.592;1.456;2023-07-20T11:50:42;2.97;;;1.33;;
65583;SDS011;70321;43.592;1.456;2023-07-20T11:53:08;3.08;;;1.42;;
65583;SDS011;70321;43.592;1.456;2023-07-20T11:55:36;3.15;;;2.00;;
65583;SDS011;70321;43.592;1.456;2023-07-20T11:58:06;2.28;;;1.30;;
65583;SDS011;70321;43.592;1.456;2023-07-20T12:00:34;2.08;;;1.02;;
65583;SDS011;70321;43.592;1.456;2023-07-20T12:03:04;2.75;;;0.93;;
65583;SDS011;70321;43.592;1.456;2023-07-20T12:05:33;1.25;;;0.90;;
65583;SDS011;70321;43.592;1.456;2023-07-20T12:08:21;1.95;;;1.10;;
65583;SDS011;70321;43.592;1.456;2023-07-20T12:10:48;3.33;;;1.10;;
65583;SDS011;70321;43.592;1.456;2023-07-20T12:13:14;2.78;;;1.10;;
65583;SDS011;70321;43.592;1.456;2023-07-20T12:15:41;3.25;;;1.20;;
65583;SDS011;70321;43.592;1.456;2023-07-20T12:18:09;2.28;;;1.00;;
65583;SDS011;70321;43.592;1.456;2023-07-20T12:20:36;1.95;;;1.27;;
65583;SDS011;70321;43.592;1.456;2023-07-20T12:23:05;2.13;;;1.10;;
65583;SDS011;70321;43.592;1.456;2023-07-20T12:25:41;4.72;;;1.20;;
65583;SDS011;70321;43.592;1.456;2023-07-20T12:28:09;1.88;;;1.08;;
65583;SDS011;70321;43.592;1.456;2023-07-20T12:30:38;2.70;;;1.15;;
65583;SDS011;70321;43.592;1.456;2023-07-20T12:33:05;2.03;;;1.10;;
65583;SDS011;70321;43.592;1.456;2023-07-20T12:35:33;2.38;;;1.20;;
65583;SDS011;70321;43.592;1.456;2023-07-20T12:38:00;1.73;;;1.10;;
65583;SDS011;70321;43.592;1.456;2023-07-20T12:40:26;4.53;;;1.05;;
65583;SDS011;70321;43.592;1.456;2023-07-20T12:42:53;2.30;;;1.25;;
65583;SDS011;70321;43.592;1.456;2023-07-20T12:45:20;3.28;;;1.05;;
65583;SDS011;70321;43.592;1.456;2023-07-20T12:47:48;1.38;;;1.00;;
65583;SDS011;70321;43.592;1.456;2023-07-20T12:50:15;2.45;;;1.00;;
65583;SDS011;70321;43.592;1.456;2023-07-20T12:52:41;1.38;;;0.98;;
65583;SDS011;70321;43.592;1.456;2023-07-20T12:55:08;1.63;;;1.10;;
65583;SDS011;70321;43.592;1.456;2023-07-20T12:57:36;4.10;;;1.10;;
65583;SDS011;70321;43.592;1.456;2023-07-20T13:00:04;1.27;;;1.00;;
65583;SDS011;70321;43.592;1.456;2023-07-20T13:02:34;1.58;;;1.13;;
65583;SDS011;70321;43.592;1.456;2023-07-20T13:05:02;3.50;;;1.20;;
65583;SDS011;70321;43.592;1.456;2023-07-20T13:07:34;2.25;;;1.13;;
65583;SDS011;70321;43.592;1.456;2023-07-20T13:10:05;3.50;;;1.30;;
65583;SDS011;70321;43.592;1.456;2023-07-20T13:12:33;3.53;;;1.13;;
65583;SDS011;70321;43.592;1.456;2023-07-20T13:15:02;2.33;;;1.33;;
65583;SDS011;70321;43.592;1.456;2023-07-20T13:17:32;3.08;;;1.20;;
65583;SDS011;70321;43.592;1.456;2023-07-20T13:19:59;2.72;;;1.23;;
65583;SDS011;70321;43.592;1.456;2023-07-20T13:22:26;2.97;;;1.40;;
65583;SDS011;70321;43.592;1.456;2023-07-20T13:24:53;2.70;;;1.20;;
65583;SDS011;70321;43.592;1.456;2023-07-20T13:27:20;1.38;;;1.00;;
65583;SDS011;70321;43.592;1.456;2023-07-20T13:29:47;2.58;;;1.10;;
65583;SDS011;70321;43.592;1.456;2023-07-20T13:32:14;2.15;;;1.20;;
65583;SDS011;70321;43.592;1.456;2023-07-20T13:34:41;2.65;;;1.10;;
65583;SDS011;70321;43.592;1.456;2023-07-20T13:37:08;2.40;;;1.10;;
65583;SDS011;70321;43.592;1.456;2023-07-20T13:39:38;3.15;;;1.20;;
65583;SDS011;70321;43.592;1.456;2023-07-20T13:42:05;2.33;;;1.20;;
65583;SDS011;70321;43.592;1.456;2023-07-20T13:44:32;1.48;;;1.08;;
65583;SDS011;70321;43.592;1.456;2023-07-20T13:46:59;1.75;;;1.00;;
65583;SDS011;70321;43.592;1.456;2023-07-20T13:49:29;2.80;;;1.10;;
65583;SDS011;70321;43.592;1.456;2023-07-20T13:52:02;2.90;;;1.40;;
65583;SDS011;70321;43.592;1.456;2023-07-20T13:54:31;3.35;;;1.30;;
65583;SDS011;70321;43.592;1.456;2023-07-20T13:56:58;1.90;;;1.15;;
65583;SDS011;70321;43.592;1.456;2023-07-20T13:59:25;3.00;;;1.27;;
65583;SDS011;70321;43.592;1.456;2023-07-20T14:01:51;3.33;;;1.08;;
65583;SDS011;70321;43.592;1.456;2023-07-20T14:04:38;1.88;;;1.17;;
65583;SDS011;70321;43.592;1.456;2023-07-20T14:07:05;1.42;;;0.95;;
65583;SDS011;70321;43.592;1.456;2023-07-20T14:09:32;1.27;;;1.00;;
65583;SDS011;70321;43.592;1.456;2023-07-20T14:11:59;3.28;;;1.20;;
65583;SDS011;70321;43.592;1.456;2023-07-20T14:14:29;2.25;;;1.20;;
65583;SDS011;70321;43.592;1.456;2023-07-20T14:16:55;2.10;;;1.17;;
65583;SDS011;70321;43.592;1.456;2023-07-20T14:19:22;2.05;;;0.88;;
65583;SDS011;70321;43.592;1.456;2023-07-20T14:21:49;1.17;;;0.90;;
65583;SDS011;70321;43.592;1.456;2023-07-20T14:24:16;2.20;;;1.08;;
65583;SDS011;70321;43.592;1.456;2023-07-20T14:26:44;3.90;;;1.42;;
65583;SDS011;70321;43.592;1.456;2023-07-20T14:29:13;2.15;;;1.20;;
65583;SDS011;70321;43.592;1.456;2023-07-20T14:31:41;2.30;;;1.20;;
65583;SDS011;70321;43.592;1.456;2023-07-20T14:34:08;2.00;;;1.20;;
65583;SDS011;70321;43.592;1.456;2023-07-20T14:36:35;1.90;;;1.30;;
65583;SDS011;70321;43.592;1.456;2023-07-20T14:39:01;3.97;;;1.17;;
65583;SDS011;70321;43.592;1.456;2023-07-20T14:41:28;2.33;;;1.17;;
65583;SDS011;70321;43.592;1.456;2023-07-20T14:43:55;2.30;;;1.10;;
65583;SDS011;70321;43.592;1.456;2023-07-20T14:46:23;1.75;;;1.00;;
65583;SDS011;70321;43.592;1.456;2023-07-20T14:48:51;1.90;;;1.27;;
65583;SDS011;70321;43.592;1.456;2023-07-20T14:51:18;2.10;;;0.95;;
65583;SDS011;70321;43.592;1.456;2023-07-20T14:53:47;2.38;;;1.20;;
65583;SDS011;70321;43.592;1.456;2023-07-20T14:56:14;1.58;;;1.10;;
65583;SDS011;70321;43.592;1.456;2023-07-20T14:58:41;2.25;;;1.13;;
65583;SDS011;70321;43.592;1.456;2023-07-20T15:01:07;3.17;;;1.15;;
65583;SDS011;70321;43.592;1.456;2023-07-20T15:03:34;1.70;;;1.00;;
65583;SDS011;70321;43.592;1.456;2023-07-20T15:06:01;1.40;;;1.05;;
65583;SDS011;70321;43.592;1.456;2023-07-20T15:08:29;1.60;;;0.88;;
65583;SDS011;70321;43.592;1.456;2023-07-20T15:10:56;1.55;;;1.10;;
65583;SDS011;70321;43.592;1.456;2023-07-20T15:13:23;2.00;;;1.20;;